sensor_id;sensor_type;location;lat;lon;timestamp;P1;durP1;ratioP1;P2;durP2;ratioP2
42288;SDS011;30230;47.520;19.016;2022-08-19T00:01:15;7.63;;;4.00;;
42288;SDS011;30230;47.520;19.016;2022-08-19T00:03:16;3.83;;;2.93;;
42288;SDS011;30230;47.520;19.016;2022-08-19T00:05:17;8.37;;;3.53;;
42288;SDS011;30230;47.520;19.016;2022-08-19T00:07:19;4.50;;;3.28;;
42288;SDS011;30230;47.520;19.016;2022-08-19T00:09:20;7.07;;;3.13;;
42288;SDS011;30230;47.520;19.016;2022-08-19T00:11:25;5.18;;;2.90;;
42288;SDS011;30230;47.520;19.016;2022-08-19T00:13:27;5.28;;;3.38;;
42288;SDS011;30230;47.520;19.016;2022-08-19T00:15:28;6.50;;;3.77;;
42288;SDS011;30230;47.520;19.016;2022-08-19T00:17:29;3.97;;;3.03;;
42288;SDS011;30230;47.520;19.016;2022-08-19T00:19:29;5.73;;;2.73;;
42288;SDS011;30230;47.520;19.016;2022-08-19T00:21:30;6.10;;;3.40;;
42288;SDS011;30230;47.520;19.016;2022-08-19T00:23:31;5.43;;;2.90;;
42288;SDS011;30230;47.520;19.016;2022-08-19T00:25:34;5.07;;;3.20;;
42288;SDS011;30230;47.520;19.016;2022-08-19T00:27:35;5.85;;;3.33;;
42288;SDS011;30230;47.520;19.016;2022-08-19T00:29:36;4.60;;;3.13;;
42288;SDS011;30230;47.520;19.016;2022-08-19T00:31:36;7.03;;;3.20;;
42288;SDS011;30230;47.520;19.016;2022-08-19T00:33:37;5.27;;;3.40;;
42288;SDS011;30230;47.520;19.016;2022-08-19T00:35:38;4.40;;;3.23;;
42288;SDS011;30230;47.520;19.016;2022-08-19T00:37:38;4.83;;;3.53;;
42288;SDS011;30230;47.520;19.016;2022-08-19T00:39:42;5.82;;;4.22;;
42288;SDS011;30230;47.520;19.016;2022-08-19T00:41:44;7.50;;;3.33;;
42288;SDS011;30230;47.520;19.016;2022-08-19T00:43:57;6.30;;;3.28;;
42288;SDS011;30230;47.520;19.016;2022-08-19T00:46:01;8.38;;;3.17;;
42288;SDS011;30230;47.520;19.016;2022-08-19T00:48:04;7.55;;;3.63;;
42288;SDS011;30230;47.520;19.016;2022-08-19T00:50:05;4.30;;;3.20;;
42288;SDS011;30230;47.520;19.016;2022-08-19T00:52:09;5.95;;;3.80;;
42288;SDS011;30230;47.520;19.016;2022-08-19T00:54:15;6.72;;;3.70;;
42288;SDS011;30230;47.520;19.016;2022-08-19T00:56:16;8.23;;;3.65;;
42288;SDS011;30230;47.520;19.016;2022-08-19T00:58:19;4.07;;;3.47;;
42288;SDS011;30230;47.520;19.016;2022-08-19T01:00:22;4.93;;;3.20;;
42288;SDS011;30230;47.520;19.016;2022-08-19T01:02:26;7.05;;;3.05;;
42288;SDS011;30230;47.520;19.016;2022-08-19T01:04:27;4.35;;;2.90;;
42288;SDS011;30230;47.520;19.016;2022-08-19T01:06:28;5.07;;;3.03;;
42288;SDS011;30230;47.520;19.016;2022-08-19T01:08:33;5.15;;;3.50;;
42288;SDS011;30230;47.520;19.016;2022-08-19T01:10:36;6.80;;;4.35;;
42288;SDS011;30230;47.520;19.016;2022-08-19T01:12:39;6.88;;;3.08;;
42288;SDS011;30230;47.520;19.016;2022-08-19T01:14:40;5.77;;;3.57;;
42288;SDS011;30230;47.520;19.016;2022-08-19T01:16:40;5.60;;;3.53;;
42288;SDS011;30230;47.520;19.016;2022-08-19T01:18:42;4.47;;;3.03;;
42288;SDS011;30230;47.520;19.016;2022-08-19T01:20:42;7.23;;;3.70;;
42288;SDS011;30230;47.520;19.016;2022-08-19T01:22:45;4.50;;;3.25;;
42288;SDS011;30230;47.520;19.016;2022-08-19T01:24:48;7.15;;;4.07;;
42288;SDS011;30230;47.520;19.016;2022-08-19T01:26:48;4.13;;;3.03;;
42288;SDS011;30230;47.520;19.016;2022-08-19T01:28:51;8.47;;;3.47;;
42288;SDS011;30230;47.520;19.016;2022-08-19T01:30:53;5.80;;;3.60;;
42288;SDS011;30230;47.520;19.016;2022-08-19T01:32:54;6.10;;;3.60;;
42288;SDS011;30230;47.520;19.016;2022-08-19T01:34:55;4.67;;;3.27;;
42288;SDS011;30230;47.520;19.016;2022-08-19T01:36:55;6.57;;;3.63;;
42288;SDS011;30230;47.520;19.016;2022-08-19T01:38:56;8.20;;;3.53;;
42288;SDS011;30230;47.520;19.016;2022-08-19T01:42:58;4.80;;;3.58;;
42288;SDS011;30230;47.520;19.016;2022-08-19T01:44:59;5.00;;;3.08;;
42288;SDS011;30230;47.520;19.016;2022-08-19T01:47:00;5.50;;;3.40;;
42288;SDS011;30230;47.520;19.016;2022-08-19T01:49:01;6.60;;;3.40;;
42288;SDS011;30230;47.520;19.016;2022-08-19T01:51:03;4.95;;;3.22;;
42288;SDS011;30230;47.520;19.016;2022-08-19T01:53:06;10.80;;;4.30;;
42288;SDS011;30230;47.520;19.016;2022-08-19T01:55:13;5.28;;;3.70;;
42288;SDS011;30230;47.520;19.016;2022-08-19T01:57:15;4.50;;;3.30;;
42288;SDS011;30230;47.520;19.016;2022-08-19T01:59:17;7.83;;;3.73;;
42288;SDS011;30230;47.520;19.016;2022-08-19T02:01:20;5.22;;;3.10;;
42288;SDS011;30230;47.520;19.016;2022-08-19T02:03:20;4.85;;;3.30;;
42288;SDS011;30230;47.520;19.016;2022-08-19T02:05:21;8.00;;;3.43;;
42288;SDS011;30230;47.520;19.016;2022-08-19T02:07:22;4.65;;;3.65;;
42288;SDS011;30230;47.520;19.016;2022-08-19T02:09:24;4.23;;;3.47;;
42288;SDS011;30230;47.520;19.016;2022-08-19T02:11:26;6.23;;;4.00;;
42288;SDS011;30230;47.520;19.016;2022-08-19T02:13:31;5.28;;;3.25;;
42288;SDS011;30230;47.520;19.016;2022-08-19T02:15:31;7.63;;;3.60;;
42288;SDS011;30230;47.520;19.016;2022-08-19T02:17:32;6.80;;;3.60;;
42288;SDS011;30230;47.520;19.016;2022-08-19T02:19:33;6.37;;;3.90;;
42288;SDS011;30230;47.520;19.016;2022-08-19T02:21:34;4.37;;;3.20;;
42288;SDS011;30230;47.520;19.016;2022-08-19T02:23:35;5.45;;;4.03;;
42288;SDS011;30230;47.520;19.016;2022-08-19T02:25:35;6.17;;;3.17;;
42288;SDS011;30230;47.520;19.016;2022-08-19T02:27:36;5.90;;;3.23;;
42288;SDS011;30230;47.520;19.016;2022-08-19T02:29:36;6.80;;;3.60;;
42288;SDS011;30230;47.520;19.016;2022-08-19T02:31:37;8.10;;;3.70;;
42288;SDS011;30230;47.520;19.016;2022-08-19T02:33:38;6.67;;;3.90;;
42288;SDS011;30230;47.520;19.016;2022-08-19T02:35:42;6.95;;;3.38;;
42288;SDS011;30230;47.520;19.016;2022-08-19T02:37:46;8.13;;;3.50;;
42288;SDS011;30230;47.520;19.016;2022-08-19T02:40:05;5.70;;;3.40;;
42288;SDS011;30230;47.520;19.016;2022-08-19T02:42:06;6.53;;;3.35;;
42288;SDS011;30230;47.520;19.016;2022-08-19T02:44:07;6.17;;;3.90;;
42288;SDS011;30230;47.520;19.016;2022-08-19T02:46:15;6.27;;;4.03;;
42288;SDS011;30230;47.520;19.016;2022-08-19T02:48:21;4.97;;;3.30;;
42288;SDS011;30230;47.520;19.016;2022-08-19T02:50:23;7.03;;;3.78;;
42288;SDS011;30230;47.520;19.016;2022-08-19T02:52:23;7.07;;;4.07;;
42288;SDS011;30230;47.520;19.016;2022-08-19T02:54:25;5.57;;;4.00;;
42288;SDS011;30230;47.520;19.016;2022-08-19T02:56:26;7.23;;;4.03;;
42288;SDS011;30230;47.520;19.016;2022-08-19T02:58:27;6.03;;;3.28;;
42288;SDS011;30230;47.520;19.016;2022-08-19T03:00:27;5.27;;;3.23;;
42288;SDS011;30230;47.520;19.016;2022-08-19T03:02:28;8.63;;;3.87;;
42288;SDS011;30230;47.520;19.016;2022-08-19T03:04:28;4.80;;;3.40;;
42288;SDS011;30230;47.520;19.016;2022-08-19T03:06:29;5.50;;;3.42;;
42288;SDS011;30230;47.520;19.016;2022-08-19T03:08:31;6.10;;;3.33;;
42288;SDS011;30230;47.520;19.016;2022-08-19T03:10:32;5.40;;;3.83;;
42288;SDS011;30230;47.520;19.016;2022-08-19T03:12:34;7.13;;;3.53;;
42288;SDS011;30230;47.520;19.016;2022-08-19T03:14:37;6.00;;;3.75;;
42288;SDS011;30230;47.520;19.016;2022-08-19T03:16:45;4.63;;;3.43;;
42288;SDS011;30230;47.520;19.016;2022-08-19T03:18:47;5.50;;;3.70;;
42288;SDS011;30230;47.520;19.016;2022-08-19T03:20:48;4.32;;;3.03;;
42288;SDS011;30230;47.520;19.016;2022-08-19T03:22:52;4.72;;;3.33;;
42288;SDS011;30230;47.520;19.016;2022-08-19T03:24:53;5.93;;;3.70;;
42288;SDS011;30230;47.520;19.016;2022-08-19T03:26:54;6.30;;;4.13;;
42288;SDS011;30230;47.520;19.016;2022-08-19T03:28:57;6.35;;;3.90;;
42288;SDS011;30230;47.520;19.016;2022-08-19T03:31:00;6.30;;;4.43;;
42288;SDS011;30230;47.520;19.016;2022-08-19T03:33:04;7.85;;;3.60;;
42288;SDS011;30230;47.520;19.016;2022-08-19T03:35:04;7.28;;;3.75;;
42288;SDS011;30230;47.520;19.016;2022-08-19T03:37:10;7.20;;;3.70;;
42288;SDS011;30230;47.520;19.016;2022-08-19T03:39:14;7.20;;;3.55;;
42288;SDS011;30230;47.520;19.016;2022-08-19T03:41:17;7.70;;;3.65;;
42288;SDS011;30230;47.520;19.016;2022-08-19T03:43:21;6.65;;;3.25;;
42288;SDS011;30230;47.520;19.016;2022-08-19T03:45:22;7.30;;;3.88;;
42288;SDS011;30230;47.520;19.016;2022-08-19T03:47:23;4.47;;;3.30;;
42288;SDS011;30230;47.520;19.016;2022-08-19T03:49:25;4.80;;;3.73;;
42288;SDS011;30230;47.520;19.016;2022-08-19T03:51:29;6.40;;;3.83;;
42288;SDS011;30230;47.520;19.016;2022-08-19T03:53:33;4.97;;;3.55;;
42288;SDS011;30230;47.520;19.016;2022-08-19T03:55:41;5.03;;;3.60;;
42288;SDS011;30230;47.520;19.016;2022-08-19T03:57:41;7.28;;;3.83;;
42288;SDS011;30230;47.520;19.016;2022-08-19T03:59:42;5.97;;;3.88;;
42288;SDS011;30230;47.520;19.016;2022-08-19T04:01:43;5.82;;;3.33;;
42288;SDS011;30230;47.520;19.016;2022-08-19T04:03:44;3.85;;;2.90;;
42288;SDS011;30230;47.520;19.016;2022-08-19T04:05:46;4.50;;;3.10;;
42288;SDS011;30230;47.520;19.016;2022-08-19T04:07:47;5.20;;;3.15;;
42288;SDS011;30230;47.520;19.016;2022-08-19T04:09:48;5.03;;;3.40;;
42288;SDS011;30230;47.520;19.016;2022-08-19T04:11:50;6.65;;;3.42;;
42288;SDS011;30230;47.520;19.016;2022-08-19T04:13:55;6.10;;;3.60;;
42288;SDS011;30230;47.520;19.016;2022-08-19T04:15:55;7.95;;;4.00;;
42288;SDS011;30230;47.520;19.016;2022-08-19T04:17:56;6.05;;;3.10;;
42288;SDS011;30230;47.520;19.016;2022-08-19T04:19:57;6.40;;;3.90;;
42288;SDS011;30230;47.520;19.016;2022-08-19T04:21:57;3.70;;;3.28;;
42288;SDS011;30230;47.520;19.016;2022-08-19T04:23:58;11.63;;;3.63;;
42288;SDS011;30230;47.520;19.016;2022-08-19T04:25:59;7.00;;;3.65;;
42288;SDS011;30230;47.520;19.016;2022-08-19T04:28:00;6.45;;;3.10;;
42288;SDS011;30230;47.520;19.016;2022-08-19T04:30:00;5.90;;;4.07;;
42288;SDS011;30230;47.520;19.016;2022-08-19T04:32:02;7.77;;;4.07;;
42288;SDS011;30230;47.520;19.016;2022-08-19T04:34:04;10.15;;;3.33;;
42288;SDS011;30230;47.520;19.016;2022-08-19T04:36:07;4.82;;;3.40;;
42288;SDS011;30230;47.520;19.016;2022-08-19T04:38:07;5.20;;;3.30;;
42288;SDS011;30230;47.520;19.016;2022-08-19T04:40:09;6.53;;;3.65;;
42288;SDS011;30230;47.520;19.016;2022-08-19T04:42:28;5.05;;;2.70;;
42288;SDS011;30230;47.520;19.016;2022-08-19T04:44:41;8.57;;;3.92;;
42288;SDS011;30230;47.520;19.016;2022-08-19T04:46:41;4.68;;;3.42;;
42288;SDS011;30230;47.520;19.016;2022-08-19T04:48:42;6.40;;;3.17;;
42288;SDS011;30230;47.520;19.016;2022-08-19T04:50:43;4.32;;;3.42;;
42288;SDS011;30230;47.520;19.016;2022-08-19T04:52:44;5.80;;;3.53;;
42288;SDS011;30230;47.520;19.016;2022-08-19T04:54:44;6.00;;;3.50;;
42288;SDS011;30230;47.520;19.016;2022-08-19T04:56:44;6.67;;;3.73;;
42288;SDS011;30230;47.520;19.016;2022-08-19T04:58:45;4.63;;;3.53;;
42288;SDS011;30230;47.520;19.016;2022-08-19T05:00:45;5.37;;;3.57;;
42288;SDS011;30230;47.520;19.016;2022-08-19T05:02:46;7.13;;;3.37;;
42288;SDS011;30230;47.520;19.016;2022-08-19T05:04:46;5.87;;;3.70;;
42288;SDS011;30230;47.520;19.016;2022-08-19T05:06:48;4.15;;;3.15;;
42288;SDS011;30230;47.520;19.016;2022-08-19T05:08:49;7.60;;;4.22;;
42288;SDS011;30230;47.520;19.016;2022-08-19T05:10:50;6.30;;;3.50;;
42288;SDS011;30230;47.520;19.016;2022-08-19T05:12:52;3.92;;;2.97;;
42288;SDS011;30230;47.520;19.016;2022-08-19T05:14:52;4.60;;;3.28;;
42288;SDS011;30230;47.520;19.016;2022-08-19T05:16:54;5.72;;;3.38;;
42288;SDS011;30230;47.520;19.016;2022-08-19T05:18:55;4.57;;;3.40;;
42288;SDS011;30230;47.520;19.016;2022-08-19T05:21:15;6.05;;;3.28;;
42288;SDS011;30230;47.520;19.016;2022-08-19T05:23:36;7.53;;;3.47;;
42288;SDS011;30230;47.520;19.016;2022-08-19T05:25:38;4.20;;;3.30;;
42288;SDS011;30230;47.520;19.016;2022-08-19T05:27:40;6.65;;;3.28;;
42288;SDS011;30230;47.520;19.016;2022-08-19T05:29:41;5.63;;;3.63;;
42288;SDS011;30230;47.520;19.016;2022-08-19T05:31:42;8.47;;;3.90;;
42288;SDS011;30230;47.520;19.016;2022-08-19T05:33:43;6.90;;;3.80;;
42288;SDS011;30230;47.520;19.016;2022-08-19T05:35:43;5.90;;;3.53;;
42288;SDS011;30230;47.520;19.016;2022-08-19T05:37:44;6.70;;;4.27;;
42288;SDS011;30230;47.520;19.016;2022-08-19T05:39:44;9.30;;;3.58;;
42288;SDS011;30230;47.520;19.016;2022-08-19T05:41:49;4.90;;;3.37;;
42288;SDS011;30230;47.520;19.016;2022-08-19T05:43:56;5.32;;;3.78;;
42288;SDS011;30230;47.520;19.016;2022-08-19T05:45:58;8.07;;;3.20;;
42288;SDS011;30230;47.520;19.016;2022-08-19T05:47:58;4.77;;;3.17;;
42288;SDS011;30230;47.520;19.016;2022-08-19T05:49:59;5.87;;;3.50;;
42288;SDS011;30230;47.520;19.016;2022-08-19T05:52:05;4.75;;;3.30;;
42288;SDS011;30230;47.520;19.016;2022-08-19T05:54:07;4.35;;;2.90;;
42288;SDS011;30230;47.520;19.016;2022-08-19T05:56:09;8.13;;;3.17;;
42288;SDS011;30230;47.520;19.016;2022-08-19T05:58:12;5.88;;;2.95;;
42288;SDS011;30230;47.520;19.016;2022-08-19T06:00:13;5.55;;;3.83;;
42288;SDS011;30230;47.520;19.016;2022-08-19T06:02:14;7.43;;;3.50;;
42288;SDS011;30230;47.520;19.016;2022-08-19T06:04:14;6.93;;;3.20;;
42288;SDS011;30230;47.520;19.016;2022-08-19T06:06:15;6.75;;;3.03;;
42288;SDS011;30230;47.520;19.016;2022-08-19T06:08:16;6.70;;;3.63;;
42288;SDS011;30230;47.520;19.016;2022-08-19T06:10:18;6.80;;;3.30;;
42288;SDS011;30230;47.520;19.016;2022-08-19T06:12:18;5.60;;;3.50;;
42288;SDS011;30230;47.520;19.016;2022-08-19T06:14:20;6.63;;;3.33;;
42288;SDS011;30230;47.520;19.016;2022-08-19T06:16:23;8.05;;;3.20;;
42288;SDS011;30230;47.520;19.016;2022-08-19T06:18:23;7.18;;;3.33;;
42288;SDS011;30230;47.520;19.016;2022-08-19T06:20:24;7.80;;;3.67;;
42288;SDS011;30230;47.520;19.016;2022-08-19T06:22:24;7.43;;;3.77;;
42288;SDS011;30230;47.520;19.016;2022-08-19T06:24:26;5.70;;;3.50;;
42288;SDS011;30230;47.520;19.016;2022-08-19T06:26:28;5.90;;;3.58;;
42288;SDS011;30230;47.520;19.016;2022-08-19T06:28:28;6.60;;;3.13;;
42288;SDS011;30230;47.520;19.016;2022-08-19T06:30:29;8.80;;;3.33;;
42288;SDS011;30230;47.520;19.016;2022-08-19T06:32:29;5.70;;;3.67;;
42288;SDS011;30230;47.520;19.016;2022-08-19T06:34:31;5.27;;;3.27;;
42288;SDS011;30230;47.520;19.016;2022-08-19T06:36:35;6.75;;;3.50;;
42288;SDS011;30230;47.520;19.016;2022-08-19T06:38:41;4.82;;;3.92;;
42288;SDS011;30230;47.520;19.016;2022-08-19T06:40:42;4.03;;;3.00;;
42288;SDS011;30230;47.520;19.016;2022-08-19T06:42:42;7.40;;;4.00;;
42288;SDS011;30230;47.520;19.016;2022-08-19T06:44:43;9.30;;;3.13;;
42288;SDS011;30230;47.520;19.016;2022-08-19T06:46:45;7.57;;;3.83;;
42288;SDS011;30230;47.520;19.016;2022-08-19T06:48:47;5.27;;;3.60;;
42288;SDS011;30230;47.520;19.016;2022-08-19T06:50:48;5.22;;;2.85;;
42288;SDS011;30230;47.520;19.016;2022-08-19T06:52:51;6.38;;;3.53;;
42288;SDS011;30230;47.520;19.016;2022-08-19T06:54:51;7.07;;;3.23;;
42288;SDS011;30230;47.520;19.016;2022-08-19T06:56:52;5.80;;;3.03;;
42288;SDS011;30230;47.520;19.016;2022-08-19T06:58:52;4.23;;;2.73;;
42288;SDS011;30230;47.520;19.016;2022-08-19T07:00:53;5.87;;;3.57;;
42288;SDS011;30230;47.520;19.016;2022-08-19T07:02:53;6.83;;;3.50;;
42288;SDS011;30230;47.520;19.016;2022-08-19T07:04:53;6.90;;;2.87;;
42288;SDS011;30230;47.520;19.016;2022-08-19T07:08:57;5.45;;;3.38;;
42288;SDS011;30230;47.520;19.016;2022-08-19T07:10:58;6.50;;;3.37;;
42288;SDS011;30230;47.520;19.016;2022-08-19T07:12:58;4.67;;;2.77;;
42288;SDS011;30230;47.520;19.016;2022-08-19T07:14:59;5.80;;;3.27;;
42288;SDS011;30230;47.520;19.016;2022-08-19T07:17:00;5.93;;;3.10;;
42288;SDS011;30230;47.520;19.016;2022-08-19T07:19:00;6.40;;;3.50;;
42288;SDS011;30230;47.520;19.016;2022-08-19T07:21:05;5.07;;;3.23;;
42288;SDS011;30230;47.520;19.016;2022-08-19T07:23:07;7.72;;;3.35;;
42288;SDS011;30230;47.520;19.016;2022-08-19T07:25:08;5.30;;;3.57;;
42288;SDS011;30230;47.520;19.016;2022-08-19T07:27:09;6.22;;;3.38;;
42288;SDS011;30230;47.520;19.016;2022-08-19T07:29:10;5.50;;;3.33;;
42288;SDS011;30230;47.520;19.016;2022-08-19T07:31:12;4.55;;;2.78;;
42288;SDS011;30230;47.520;19.016;2022-08-19T07:33:14;4.38;;;3.05;;
42288;SDS011;30230;47.520;19.016;2022-08-19T07:35:14;9.33;;;3.40;;
42288;SDS011;30230;47.520;19.016;2022-08-19T07:37:15;11.07;;;3.30;;
42288;SDS011;30230;47.520;19.016;2022-08-19T07:39:26;5.43;;;3.00;;
42288;SDS011;30230;47.520;19.016;2022-08-19T07:41:29;6.07;;;2.95;;
42288;SDS011;30230;47.520;19.016;2022-08-19T07:43:31;5.85;;;3.28;;
42288;SDS011;30230;47.520;19.016;2022-08-19T07:45:32;5.40;;;3.13;;
42288;SDS011;30230;47.520;19.016;2022-08-19T07:47:32;4.17;;;2.67;;
42288;SDS011;30230;47.520;19.016;2022-08-19T07:49:33;5.03;;;2.93;;
42288;SDS011;30230;47.520;19.016;2022-08-19T07:51:33;8.70;;;3.43;;
42288;SDS011;30230;47.520;19.016;2022-08-19T07:53:34;8.13;;;2.93;;
42288;SDS011;30230;47.520;19.016;2022-08-19T07:55:36;6.78;;;2.90;;
42288;SDS011;30230;47.520;19.016;2022-08-19T07:57:36;4.17;;;2.53;;
42288;SDS011;30230;47.520;19.016;2022-08-19T08:01:40;9.90;;;2.97;;
42288;SDS011;30230;47.520;19.016;2022-08-19T08:03:40;7.00;;;2.90;;
42288;SDS011;30230;47.520;19.016;2022-08-19T08:06:00;5.70;;;3.13;;
42288;SDS011;30230;47.520;19.016;2022-08-19T08:08:19;4.03;;;2.55;;
42288;SDS011;30230;47.520;19.016;2022-08-19T08:10:38;4.10;;;3.05;;
42288;SDS011;30230;47.520;19.016;2022-08-19T08:12:39;5.80;;;3.03;;
42288;SDS011;30230;47.520;19.016;2022-08-19T08:14:45;3.40;;;2.28;;
42288;SDS011;30230;47.520;19.016;2022-08-19T08:16:50;8.65;;;3.13;;
42288;SDS011;30230;47.520;19.016;2022-08-19T08:18:51;5.47;;;2.90;;
42288;SDS011;30230;47.520;19.016;2022-08-19T08:20:51;4.57;;;3.27;;
42288;SDS011;30230;47.520;19.016;2022-08-19T08:22:52;4.70;;;2.87;;
42288;SDS011;30230;47.520;19.016;2022-08-19T08:25:13;6.53;;;3.05;;
42288;SDS011;30230;47.520;19.016;2022-08-19T08:27:15;4.97;;;2.85;;
42288;SDS011;30230;47.520;19.016;2022-08-19T08:29:16;3.47;;;3.00;;
42288;SDS011;30230;47.520;19.016;2022-08-19T08:31:17;6.03;;;2.40;;
42288;SDS011;30230;47.520;19.016;2022-08-19T08:33:19;7.95;;;3.15;;
42288;SDS011;30230;47.520;19.016;2022-08-19T08:35:22;6.47;;;2.60;;
42288;SDS011;30230;47.520;19.016;2022-08-19T08:37:23;7.43;;;2.75;;
42288;SDS011;30230;47.520;19.016;2022-08-19T08:39:24;4.83;;;2.83;;
42288;SDS011;30230;47.520;19.016;2022-08-19T08:43:35;7.05;;;3.00;;
42288;SDS011;30230;47.520;19.016;2022-08-19T08:45:43;4.25;;;2.30;;
42288;SDS011;30230;47.520;19.016;2022-08-19T08:47:50;3.85;;;2.55;;
42288;SDS011;30230;47.520;19.016;2022-08-19T08:49:59;3.70;;;2.40;;
42288;SDS011;30230;47.520;19.016;2022-08-19T08:52:11;3.47;;;2.03;;
42288;SDS011;30230;47.520;19.016;2022-08-19T08:54:19;4.22;;;2.40;;
42288;SDS011;30230;47.520;19.016;2022-08-19T08:56:23;7.63;;;2.78;;
42288;SDS011;30230;47.520;19.016;2022-08-19T08:58:32;3.78;;;2.58;;
42288;SDS011;30230;47.520;19.016;2022-08-19T09:00:46;4.57;;;3.00;;
42288;SDS011;30230;47.520;19.016;2022-08-19T09:02:48;4.18;;;2.20;;
42288;SDS011;30230;47.520;19.016;2022-08-19T09:04:48;5.87;;;2.60;;
42288;SDS011;30230;47.520;19.016;2022-08-19T09:09:13;7.07;;;2.72;;
42288;SDS011;30230;47.520;19.016;2022-08-19T09:16:24;4.63;;;2.42;;
42288;SDS011;30230;47.520;19.016;2022-08-19T09:18:50;4.82;;;2.30;;
42288;SDS011;30230;47.520;19.016;2022-08-19T09:20:52;4.10;;;2.60;;
42288;SDS011;30230;47.520;19.016;2022-08-19T09:22:53;6.20;;;2.37;;
42288;SDS011;30230;47.520;19.016;2022-08-19T09:24:54;5.73;;;3.00;;
42288;SDS011;30230;47.520;19.016;2022-08-19T09:26:54;6.65;;;2.75;;
42288;SDS011;30230;47.520;19.016;2022-08-19T09:28:55;8.77;;;2.73;;
42288;SDS011;30230;47.520;19.016;2022-08-19T09:30:58;7.15;;;2.50;;
42288;SDS011;30230;47.520;19.016;2022-08-19T09:32:58;3.27;;;2.17;;
42288;SDS011;30230;47.520;19.016;2022-08-19T09:34:59;3.60;;;2.30;;
42288;SDS011;30230;47.520;19.016;2022-08-19T09:37:01;3.13;;;2.38;;
42288;SDS011;30230;47.520;19.016;2022-08-19T09:41:04;4.53;;;2.08;;
42288;SDS011;30230;47.520;19.016;2022-08-19T09:43:06;4.53;;;2.20;;
42288;SDS011;30230;47.520;19.016;2022-08-19T09:47:11;5.17;;;2.30;;
42288;SDS011;30230;47.520;19.016;2022-08-19T09:49:14;6.25;;;2.55;;
42288;SDS011;30230;47.520;19.016;2022-08-19T09:51:20;2.65;;;1.88;;
42288;SDS011;30230;47.520;19.016;2022-08-19T09:53:23;3.25;;;1.92;;
42288;SDS011;30230;47.520;19.016;2022-08-19T09:55:24;3.80;;;2.27;;
42288;SDS011;30230;47.520;19.016;2022-08-19T09:57:25;4.50;;;2.20;;
42288;SDS011;30230;47.520;19.016;2022-08-19T09:59:26;3.20;;;2.07;;
42288;SDS011;30230;47.520;19.016;2022-08-19T10:03:29;4.35;;;2.15;;
42288;SDS011;30230;47.520;19.016;2022-08-19T10:05:31;5.57;;;2.38;;
42288;SDS011;30230;47.520;19.016;2022-08-19T10:07:49;3.38;;;2.40;;
42288;SDS011;30230;47.520;19.016;2022-08-19T10:09:50;4.30;;;2.08;;
42288;SDS011;30230;47.520;19.016;2022-08-19T10:11:50;3.63;;;2.30;;
42288;SDS011;30230;47.520;19.016;2022-08-19T10:13:51;4.53;;;2.10;;
42288;SDS011;30230;47.520;19.016;2022-08-19T10:15:52;4.13;;;2.37;;
42288;SDS011;30230;47.520;19.016;2022-08-19T10:17:54;6.80;;;2.17;;
42288;SDS011;30230;47.520;19.016;2022-08-19T10:19:54;2.77;;;1.90;;
42288;SDS011;30230;47.520;19.016;2022-08-19T10:21:55;3.70;;;2.00;;
42288;SDS011;30230;47.520;19.016;2022-08-19T10:23:56;2.53;;;2.00;;
42288;SDS011;30230;47.520;19.016;2022-08-19T10:26:00;3.17;;;2.20;;
42288;SDS011;30230;47.520;19.016;2022-08-19T10:28:00;6.72;;;2.40;;
42288;SDS011;30230;47.520;19.016;2022-08-19T10:30:01;5.37;;;2.10;;
42288;SDS011;30230;47.520;19.016;2022-08-19T10:32:02;2.30;;;1.52;;
42288;SDS011;30230;47.520;19.016;2022-08-19T10:34:05;3.22;;;2.10;;
42288;SDS011;30230;47.520;19.016;2022-08-19T10:36:10;4.83;;;2.13;;
42288;SDS011;30230;47.520;19.016;2022-08-19T10:38:17;5.57;;;2.25;;
42288;SDS011;30230;47.520;19.016;2022-08-19T10:40:17;5.17;;;2.00;;
42288;SDS011;30230;47.520;19.016;2022-08-19T10:42:18;3.37;;;2.17;;
42288;SDS011;30230;47.520;19.016;2022-08-19T10:44:19;3.75;;;1.90;;
42288;SDS011;30230;47.520;19.016;2022-08-19T10:46:22;3.05;;;2.10;;
42288;SDS011;30230;47.520;19.016;2022-08-19T10:48:23;3.38;;;2.22;;
42288;SDS011;30230;47.520;19.016;2022-08-19T10:50:24;5.93;;;2.43;;
42288;SDS011;30230;47.520;19.016;2022-08-19T10:52:44;2.55;;;1.70;;
42288;SDS011;30230;47.520;19.016;2022-08-19T10:54:45;2.63;;;1.90;;
42288;SDS011;30230;47.520;19.016;2022-08-19T10:57:04;3.47;;;1.70;;
42288;SDS011;30230;47.520;19.016;2022-08-19T10:59:05;5.03;;;2.00;;
42288;SDS011;30230;47.520;19.016;2022-08-19T11:01:05;5.20;;;1.90;;
42288;SDS011;30230;47.520;19.016;2022-08-19T11:03:05;2.97;;;2.00;;
42288;SDS011;30230;47.520;19.016;2022-08-19T11:05:06;4.93;;;1.80;;
42288;SDS011;30230;47.520;19.016;2022-08-19T11:07:07;4.25;;;2.10;;
42288;SDS011;30230;47.520;19.016;2022-08-19T11:09:08;2.60;;;1.90;;
42288;SDS011;30230;47.520;19.016;2022-08-19T11:11:10;3.80;;;2.33;;
42288;SDS011;30230;47.520;19.016;2022-08-19T11:13:11;3.33;;;2.08;;
42288;SDS011;30230;47.520;19.016;2022-08-19T11:15:12;5.30;;;3.20;;
42288;SDS011;30230;47.520;19.016;2022-08-19T11:17:12;4.33;;;2.13;;
42288;SDS011;30230;47.520;19.016;2022-08-19T11:19:13;9.88;;;2.85;;
42288;SDS011;30230;47.520;19.016;2022-08-19T11:21:36;3.78;;;2.05;;
42288;SDS011;30230;47.520;19.016;2022-08-19T11:23:39;3.08;;;1.70;;
42288;SDS011;30230;47.520;19.016;2022-08-19T11:25:40;4.80;;;2.22;;
42288;SDS011;30230;47.520;19.016;2022-08-19T11:27:41;8.68;;;2.53;;
42288;SDS011;30230;47.520;19.016;2022-08-19T11:29:43;2.40;;;1.88;;
42288;SDS011;30230;47.520;19.016;2022-08-19T11:31:44;2.03;;;1.73;;
42288;SDS011;30230;47.520;19.016;2022-08-19T11:33:46;6.60;;;2.47;;
42288;SDS011;30230;47.520;19.016;2022-08-19T11:35:50;5.60;;;2.75;;
42288;SDS011;30230;47.520;19.016;2022-08-19T11:37:51;4.60;;;2.70;;
42288;SDS011;30230;47.520;19.016;2022-08-19T11:39:51;4.90;;;2.70;;
42288;SDS011;30230;47.520;19.016;2022-08-19T11:41:51;6.33;;;2.77;;
42288;SDS011;30230;47.520;19.016;2022-08-19T11:43:53;3.93;;;2.20;;
42288;SDS011;30230;47.520;19.016;2022-08-19T11:45:55;9.30;;;2.65;;
42288;SDS011;30230;47.520;19.016;2022-08-19T11:47:56;5.75;;;2.67;;
42288;SDS011;30230;47.520;19.016;2022-08-19T11:51:57;4.80;;;1.93;;
42288;SDS011;30230;47.520;19.016;2022-08-19T11:53:58;5.95;;;2.30;;
42288;SDS011;30230;47.520;19.016;2022-08-19T11:55:59;4.70;;;1.95;;
42288;SDS011;30230;47.520;19.016;2022-08-19T11:58:00;2.90;;;1.75;;
42288;SDS011;30230;47.520;19.016;2022-08-19T12:00:02;2.45;;;1.60;;
42288;SDS011;30230;47.520;19.016;2022-08-19T12:02:04;6.40;;;2.35;;
42288;SDS011;30230;47.520;19.016;2022-08-19T12:04:05;3.35;;;2.08;;
42288;SDS011;30230;47.520;19.016;2022-08-19T12:06:07;2.93;;;2.23;;
42288;SDS011;30230;47.520;19.016;2022-08-19T12:08:09;4.22;;;2.60;;
42288;SDS011;30230;47.520;19.016;2022-08-19T12:10:11;3.60;;;2.45;;
42288;SDS011;30230;47.520;19.016;2022-08-19T12:12:11;5.45;;;2.30;;
42288;SDS011;30230;47.520;19.016;2022-08-19T12:14:12;5.80;;;2.60;;
42288;SDS011;30230;47.520;19.016;2022-08-19T12:16:15;5.55;;;2.30;;
42288;SDS011;30230;47.520;19.016;2022-08-19T12:18:26;8.15;;;2.80;;
42288;SDS011;30230;47.520;19.016;2022-08-19T12:20:27;4.65;;;2.45;;
42288;SDS011;30230;47.520;19.016;2022-08-19T12:22:27;4.87;;;2.80;;
42288;SDS011;30230;47.520;19.016;2022-08-19T12:24:29;3.85;;;2.50;;
42288;SDS011;30230;47.520;19.016;2022-08-19T12:26:31;4.10;;;2.75;;
42288;SDS011;30230;47.520;19.016;2022-08-19T12:28:32;4.72;;;2.88;;
42288;SDS011;30230;47.520;19.016;2022-08-19T12:30:32;5.27;;;2.83;;